createdAt,value
2023-05-14T00:01:10.027Z,100580.31
2023-05-14T00:06:11.597Z,100575.75
2023-05-14T00:11:13.356Z,100566.84
2023-05-14T00:16:14.977Z,100569.38
2023-05-14T00:21:17.157Z,100553.56
2023-05-14T00:26:18.770Z,100548.69
2023-05-14T00:31:20.699Z,100546.78
2023-05-14T00:36:22.282Z,100542.09
2023-05-14T00:41:23.853Z,100539.09
2023-05-14T00:46:26.206Z,100540.56
2023-05-14T00:51:27.992Z,100540.75
2023-05-14T00:56:29.819Z,100541.41
2023-05-14T01:01:31.538Z,100530.63
2023-05-14T01:06:48.199Z,100535.69
2023-05-14T01:12:00.268Z,100533.31
2023-05-14T01:17:04.460Z,100522.91
2023-05-14T01:22:06.349Z,100523.91
2023-05-14T01:27:08.130Z,100520.38
2023-05-14T01:32:10.936Z,100522.22
2023-05-14T01:37:12.948Z,100520.38
2023-05-14T01:42:15.143Z,100525.91
2023-05-14T01:47:16.782Z,100528.09
2023-05-14T01:52:21.013Z,100523.25
2023-05-14T01:57:22.720Z,100518.34
2023-05-14T02:02:24.421Z,100521.22
2023-05-14T02:07:26.028Z,100520.69
2023-05-14T02:12:27.639Z,100518.84
2023-05-14T02:17:29.298Z,100511.63
2023-05-14T02:22:30.899Z,100511.44
2023-05-14T02:27:32.460Z,100504.03
2023-05-14T02:32:34.156Z,100495.09
2023-05-14T02:37:35.885Z,100508.06
2023-05-14T02:42:37.497Z,100510.56
2023-05-14T02:47:39.075Z,100510.03
2023-05-14T02:52:40.963Z,100498.09
2023-05-14T02:57:42.584Z,100499.56
2023-05-14T03:02:44.740Z,100501.75
2023-05-14T03:07:46.672Z,100502.59
2023-05-14T03:12:48.251Z,100504.94
2023-05-14T03:17:49.913Z,100499.06
2023-05-14T03:22:52.014Z,100498.84
2023-05-14T03:27:53.628Z,100505.22
2023-05-14T03:32:55.221Z,100499.50
2023-05-14T03:37:59.146Z,100491.06
2023-05-14T03:43:00.808Z,100488.28
2023-05-14T03:48:02.960Z,100488.44
2023-05-14T03:53:07.536Z,100487.09
2023-05-14T03:58:14.229Z,100485.91
2023-05-14T04:03:16.184Z,100484.41
2023-05-14T04:08:17.884Z,100471.97
2023-05-14T04:13:19.475Z,100465.28
2023-05-14T04:18:21.105Z,100471.50
2023-05-14T04:23:23.791Z,100470.66
2023-05-14T04:28:25.682Z,100472.53
2023-05-14T04:33:27.280Z,100473.41
2023-05-14T04:38:28.863Z,100464.00
2023-05-14T04:43:30.510Z,100459.94
2023-05-14T04:48:32.165Z,100464.66
2023-05-14T04:53:33.727Z,100451.72
2023-05-14T04:58:35.439Z,100450.88
2023-05-14T05:03:37.125Z,100453.38
2023-05-14T05:08:38.736Z,100451.72
2023-05-14T05:13:41.388Z,100461.63
2023-05-14T05:18:44.630Z,100456.25
2023-05-14T05:23:46.306Z,100450.13
2023-05-14T05:28:48.087Z,100440.00
2023-05-14T05:33:49.698Z,100446.03
2023-05-14T05:38:51.381Z,100447.81
2023-05-14T05:43:52.934Z,100436.50
2023-05-14T05:48:54.554Z,100435.06
2023-05-14T05:53:56.152Z,100438.38
2023-05-14T05:58:57.723Z,100433.91
2023-05-14T06:03:59.332Z,100433.84
2023-05-14T06:09:01.999Z,100437.78
2023-05-14T06:14:03.648Z,100439.47
2023-05-14T06:19:06.258Z,100431.03
2023-05-14T06:24:08.099Z,100432.13
2023-05-14T06:29:09.723Z,100433.63
2023-05-14T06:34:11.326Z,100435.13
2023-05-14T06:39:12.997Z,100427.09
2023-05-14T06:44:14.622Z,100425.00
2023-05-14T06:49:16.265Z,100422.75
2023-05-14T06:54:17.838Z,100418.53
2023-05-14T06:59:19.457Z,100408.94
2023-05-14T07:04:21.070Z,100406.94
2023-05-14T07:09:22.701Z,100414.16
2023-05-14T07:14:24.277Z,100401.47
2023-05-14T07:19:28.588Z,100394.25
2023-05-14T07:24:30.276Z,100389.88
2023-05-14T07:29:34.869Z,100392.75
2023-05-14T07:34:36.484Z,100381.72
2023-05-14T07:39:38.382Z,100386.06
2023-05-14T07:44:40.443Z,100379.31
2023-05-14T07:49:42.075Z,100376.91
2023-05-14T07:54:43.603Z,100367.03
2023-05-14T07:59:45.312Z,100369.44
2023-05-14T08:04:46.930Z,100372.88
2023-05-14T08:09:48.488Z,100368.72
2023-05-14T08:14:50.088Z,100365.69
2023-05-14T08:19:52.966Z,100376.31
2023-05-14T08:24:54.880Z,100363.84
2023-05-14T08:29:56.604Z,100357.75
2023-05-14T08:34:58.156Z,100354.03
2023-05-14T08:39:59.860Z,100358.53
2023-05-14T08:45:02.679Z,100361.03
2023-05-14T08:50:06.320Z,100364.50
2023-05-14T08:55:09.115Z,100349.84
2023-05-14T09:00:11.890Z,100352.75
2023-05-14T09:05:14.875Z,100351.03
2023-05-14T09:10:17.374Z,100350.47
2023-05-14T09:15:19.053Z,100341.38
2023-05-14T09:20:21.131Z,100338.97
2023-05-14T09:25:27.046Z,100343.38
2023-05-14T09:30:28.682Z,100335.69
2023-05-14T09:35:30.480Z,100326.09
2023-05-14T09:40:32.167Z,100324.44
2023-05-14T09:45:35.004Z,100301.84
2023-05-14T09:50:43.730Z,100301.75
2023-05-14T09:55:45.705Z,100302.72
2023-05-14T10:00:47.957Z,100304.91
2023-05-14T10:05:50.990Z,100294.81
2023-05-14T10:10:54.416Z,100282.94
2023-05-14T10:16:20.319Z,100281.06
2023-05-14T10:21:22.549Z,100268.13
2023-05-14T10:26:24.761Z,100258.13
2023-05-14T10:31:45.118Z,100251.00
2023-05-14T10:36:46.804Z,100253.06
2023-05-14T10:41:48.432Z,100247.88
2023-05-14T10:46:50.178Z,100257.25
2023-05-14T10:51:53.185Z,100244.47
2023-05-14T10:56:59.019Z,100249.31
2023-05-14T11:02:00.658Z,100244.13
2023-05-14T11:07:02.383Z,100241.81
2023-05-14T11:12:04.037Z,100238.28
2023-05-14T11:17:05.730Z,100228.25
2023-05-14T11:22:08.068Z,100224.88
2023-05-14T11:27:10.826Z,100223.03
2023-05-14T11:32:13.212Z,100227.19
2023-05-14T11:37:16.066Z,100218.84
2023-05-14T11:42:19.507Z,100210.50
2023-05-14T11:47:22.169Z,100204.44
2023-05-14T11:52:23.802Z,100200.78
2023-05-14T11:57:26.028Z,100186.22
2023-05-14T12:02:30.535Z,100189.19
2023-05-14T12:07:32.617Z,100181.56
2023-05-14T12:12:37.617Z,100176.44
2023-05-14T12:17:39.796Z,100166.84
2023-05-14T12:22:43.053Z,100157.59
2023-05-14T12:27:44.978Z,100163.03
2023-05-14T12:32:46.760Z,100155.88
2023-05-14T12:37:48.390Z,100139.94
2023-05-14T12:42:50.095Z,100145.03
2023-05-14T12:47:51.847Z,100146.25
2023-05-14T12:52:53.444Z,100135.75
2023-05-14T12:57:55.011Z,100125.69
2023-05-14T13:02:56.645Z,100121.22
2023-05-14T13:07:59.313Z,100113.25
2023-05-14T13:13:02.429Z,100120.56
2023-05-14T13:18:04.790Z,100133.97
2023-05-14T13:23:06.465Z,100123.06
2023-05-14T13:28:08.633Z,100112.50
2023-05-14T13:33:10.380Z,100107.41
2023-05-14T13:38:11.989Z,100105.41
2023-05-14T13:43:14.885Z,100101.72
2023-05-14T13:48:16.567Z,100110.44
2023-05-14T13:53:19.755Z,100104.38
2023-05-14T13:58:21.363Z,100100.41
2023-05-14T14:03:23.017Z,100094.59
2023-05-14T14:08:24.811Z,100094.34
2023-05-14T14:13:26.461Z,100089.06
2023-05-14T14:18:28.143Z,100078.66
2023-05-14T14:23:29.753Z,100073.72
2023-05-14T14:28:31.495Z,100070.38
2023-05-14T14:33:33.130Z,100061.66
2023-05-14T14:38:34.780Z,100059.41
2023-05-14T14:43:41.103Z,100054.25
2023-05-14T14:48:43.903Z,100050.91
2023-05-14T14:53:45.515Z,100057.19
2023-05-14T14:58:47.214Z,100050.13
2023-05-14T15:03:49.169Z,100053.06
2023-05-14T15:08:50.769Z,100046.34
2023-05-14T15:13:52.348Z,100036.75
2023-05-14T15:18:54.177Z,100047.22
2023-05-14T15:23:56.122Z,100051.38
2023-05-14T15:28:58.978Z,100047.00
2023-05-14T15:34:00.812Z,100038.06
2023-05-14T15:39:02.395Z,100031.38
2023-05-14T15:44:05.330Z,100022.41
2023-05-14T15:49:06.956Z,100023.41
2023-05-14T15:54:08.596Z,100031.81
2023-05-14T15:59:10.261Z,100015.72
2023-05-14T16:04:12.006Z,100016.56
2023-05-14T16:09:13.620Z,100013.25
2023-05-14T16:14:15.287Z,100017.19
2023-05-14T16:19:18.033Z,100016.38
2023-05-14T16:24:19.843Z,100025.97
2023-05-14T16:29:21.609Z,100029.81
2023-05-14T16:34:23.177Z,100035.22
2023-05-14T16:39:24.777Z,100039.81
2023-05-14T16:44:26.331Z,100040.81
2023-05-14T16:49:27.979Z,100037.09
2023-05-14T16:54:29.908Z,100033.56
2023-05-14T16:59:31.781Z,100025.41
2023-05-14T17:04:38.666Z,100023.94
2023-05-14T17:09:40.777Z,100027.25
2023-05-14T17:14:42.367Z,100015.16
2023-05-14T17:19:44.121Z,100008.47
2023-05-14T17:24:45.823Z,100008.06
2023-05-14T17:29:49.265Z,100016.41
2023-05-14T17:34:50.928Z,100017.63
2023-05-14T17:39:52.900Z,100008.25
2023-05-14T17:44:54.509Z,100018.88
2023-05-14T17:49:56.148Z,100015.72
2023-05-14T17:54:57.696Z,100021.09
2023-05-14T17:59:59.262Z,100019.84
2023-05-14T18:05:02.683Z,100016.00
2023-05-14T18:10:04.703Z,100011.66
2023-05-14T18:15:06.897Z,100013.06
2023-05-14T18:20:09.074Z,100024.47
2023-05-14T18:25:10.763Z,100018.84
2023-05-14T18:30:14.438Z,100017.91
2023-05-14T18:35:16.163Z,100030.13
2023-05-14T18:40:18.858Z,100030.88
2023-05-14T18:45:21.540Z,100029.63
2023-05-14T18:50:23.169Z,100032.09
2023-05-14T18:55:25.069Z,100029.91
2023-05-14T19:00:26.834Z,100031.09
2023-05-14T19:05:28.418Z,100039.28
2023-05-14T19:10:29.968Z,100050.91
2023-05-14T19:15:32.337Z,100050.84
2023-05-14T19:20:33.958Z,100043.34
2023-05-14T19:25:35.614Z,100050.28
2023-05-14T19:30:37.201Z,100055.25
2023-05-14T19:35:38.830Z,100056.44
2023-05-14T19:40:42.920Z,100055.56
2023-05-14T19:45:45.839Z,100050.59
2023-05-14T19:50:48.140Z,100043.41
2023-05-14T19:55:49.940Z,100035.47
2023-05-14T20:00:53.419Z,100036.25
2023-05-14T20:05:55.810Z,100037.47
2023-05-14T20:10:57.604Z,100033.22
2023-05-14T20:16:00.058Z,100022.19
2023-05-14T20:21:01.709Z,100023.59
2023-05-14T20:26:03.968Z,100015.19
2023-05-14T20:31:05.762Z,100015.78
2023-05-14T20:36:07.525Z,100010.88
2023-05-14T20:41:09.175Z,100002.72
2023-05-14T20:46:10.816Z,99997.47
2023-05-14T20:51:12.690Z,99990.06
2023-05-14T20:56:14.313Z,99984.75
2023-05-14T21:01:15.850Z,99980.56
2023-05-14T21:06:17.423Z,99974.31
2023-05-14T21:11:20.385Z,99973.69
2023-05-14T21:16:22.134Z,99978.03
2023-05-14T21:21:23.764Z,99963.34
2023-05-14T21:26:25.895Z,99960.91
2023-05-14T21:31:27.495Z,99957.88
2023-05-14T21:36:29.118Z,99959.44
2023-05-14T21:41:32.187Z,99952.00
2023-05-14T21:46:33.817Z,99949.34
2023-05-14T21:51:35.920Z,99944.97
2023-05-14T21:56:37.543Z,99935.13
2023-05-14T22:01:55.536Z,99923.81
2023-05-14T22:07:00.676Z,99918.13
2023-05-14T22:12:02.241Z,99919.44
2023-05-14T22:17:04.635Z,99918.28
2023-05-14T22:22:06.305Z,99914.56
2023-05-14T22:27:07.931Z,99903.78
2023-05-14T22:32:10.254Z,99907.25
2023-05-14T22:37:11.821Z,99909.53
2023-05-14T22:42:13.405Z,99905.84
2023-05-14T22:47:15.039Z,99891.31
2023-05-14T22:52:18.731Z,99899.16
2023-05-14T22:57:20.461Z,99886.84
2023-05-14T23:02:22.123Z,99869.09
2023-05-14T23:07:23.702Z,99872.19
2023-05-14T23:12:25.290Z,99867.75
2023-05-14T23:17:27.074Z,99856.44
2023-05-14T23:22:28.778Z,99844.47
2023-05-14T23:27:30.426Z,99842.69
2023-05-14T23:32:32.037Z,99830.81
2023-05-14T23:37:33.756Z,99828.31
2023-05-14T23:42:35.302Z,99828.13
2023-05-14T23:47:36.988Z,99822.28
2023-05-14T23:52:38.564Z,99809.28
2023-05-14T23:57:40.907Z,99809.78
